Time;durP1;ratioP1;P1;durP2;ratioP2;P2;SDS_P1;SDS_P2;PMS_P1;PMS_P2;Temp;Humidity;BMP_temperature;BMP_pressure;BME280_temperature;BME280_humidity;BME280_pressure;Samples;Min_cycle;Max_cycle;Signal;HPM_P1;HPM_P2
2022/10/26 00:00:49;;;;;;;7.75;3.60;;;13.20;80.80;;;;;;5094365;28;20085;-78
2022/10/26 00:03:15;;;;;;;9.75;3.85;;;13.20;80.80;;;;;;5094274;28;20028;-78
2022/10/26 00:05:42;;;;;;;6.65;3.25;;;13.10;80.90;;;;;;5095584;28;20048;-78
2022/10/26 00:08:08;;;;;;;6.60;3.60;;;13.20;81.10;;;;;;5093981;28;20023;-78
2022/10/26 00:10:35;;;;;;;5.95;3.80;;;13.20;81.20;;;;;;5093705;28;20095;-78
2022/10/26 00:13:01;;;;;;;8.88;4.50;;;13.20;81.30;;;;;;5093002;28;20024;-78
2022/10/26 00:15:27;;;;;;;6.32;4.00;;;13.20;81.30;;;;;;5093474;28;20031;-78
2022/10/26 00:17:53;;;;;;;7.38;3.92;;;13.20;81.40;;;;;;5093000;28;20016;-78
2022/10/26 00:20:19;;;;;;;7.70;4.18;;;13.20;81.50;;;;;;5093954;28;20021;-78
2022/10/26 00:22:44;;;;;;;7.22;3.80;;;13.20;81.60;;;;;;5094168;28;20462;-78
2022/10/26 00:25:10;;;;;;;7.55;4.05;;;13.20;81.70;;;;;;5094993;28;20032;-78
2022/10/26 00:27:36;;;;;;;9.02;3.70;;;13.20;81.90;;;;;;5093492;28;20024;-78
2022/10/26 00:30:05;;;;;;;7.57;3.88;;;13.20;82.10;;;;;;5093187;28;20028;-78
2022/10/26 00:32:31;;;;;;;8.48;4.35;;;13.20;82.30;;;;;;5058470;28;20091;-78
2022/10/26 00:34:57;;;;;;;7.90;4.75;;;13.20;82.30;;;;;;5093580;28;20029;-78
2022/10/26 00:37:22;;;;;;;6.90;4.13;;;13.20;82.30;;;;;;5092983;28;20468;-78
2022/10/26 00:39:48;;;;;;;8.48;4.82;;;13.20;82.50;;;;;;5093102;28;20039;-78
2022/10/26 00:42:20;;;;;;;7.07;4.38;;;13.20;82.80;;;;;;5076501;28;20032;-78
2022/10/26 00:44:46;;;;;;;8.77;4.30;;;13.20;82.90;;;;;;5094481;28;20078;-78
2022/10/26 00:47:21;;;;;;;7.88;4.70;;;13.20;82.90;;;;;;5093312;28;20025;-78
2022/10/26 00:49:48;;;;;;;9.43;4.18;;;13.20;83.10;;;;;;5075023;28;20324;-78
2022/10/26 00:52:15;;;;;;;9.75;4.53;;;13.30;84.00;;;;;;5092621;28;20017;-78
2022/10/26 00:54:41;;;;;;;8.65;4.03;;;13.30;83.10;;;;;;5075227;28;20054;-78
2022/10/26 00:57:07;;;;;;;7.82;4.50;;;13.30;83.10;;;;;;5092570;28;20029;-78
2022/10/26 00:59:32;;;;;;;8.07;4.43;;;13.30;83.10;;;;;;5092773;28;20060;-78
2022/10/26 01:01:58;;;;;;;9.45;4.53;;;13.30;83.10;;;;;;5093470;28;20024;-78
2022/10/26 01:04:24;;;;;;;7.85;4.10;;;13.30;83.40;;;;;;5093881;28;20027;-78
2022/10/26 01:06:51;;;;;;;11.55;4.80;;;13.20;83.50;;;;;;5058349;28;20035;-78
2022/10/26 01:09:19;;;;;;;8.27;4.57;;;13.20;83.80;;;;;;5074291;28;20027;-78
2022/10/26 01:11:45;;;;;;;8.43;4.22;;;13.20;84.10;;;;;;5091816;28;20024;-78
2022/10/26 01:14:12;;;;;;;9.25;4.25;;;13.20;84.10;;;;;;5075041;28;20024;-78
2022/10/26 01:17:03;;;;;;;8.27;4.25;;;13.30;84.10;;;;;;5091945;28;20024;-78
2022/10/26 01:20:07;;;;;;;8.90;4.03;;;13.30;84.20;;;;;;5093145;28;20028;-78
2022/10/26 01:23:02;;;;;;;6.07;3.53;;;13.30;84.10;;;;;;5074291;28;20044;-78
2022/10/26 01:25:46;;;;;;;8.93;3.80;;;13.30;84.50;;;;;;5071961;28;20096;-78
2022/10/26 01:28:30;;;;;;;7.07;4.00;;;13.20;84.50;;;;;;5092688;28;20169;-78
2022/10/26 01:31:02;;;;;;;6.68;3.95;;;13.20;84.60;;;;;;5092191;28;20048;-78
2022/10/26 01:33:43;;;;;;;9.82;4.10;;;13.20;84.70;;;;;;5091574;28;20016;-78
2022/10/26 01:36:33;;;;;;;6.85;3.97;;;13.20;84.80;;;;;;5092375;28;20025;-78
2022/10/26 01:39:13;;;;;;;6.60;3.70;;;13.20;85.00;;;;;;5092243;28;20017;-78
2022/10/26 01:41:47;;;;;;;8.65;4.25;;;13.20;85.00;;;;;;5093112;28;20016;-78
2022/10/26 01:44:17;;;;;;;8.30;4.15;;;13.20;85.40;;;;;;5093642;28;20024;-78
2022/10/26 01:46:45;;;;;;;7.43;3.60;;;13.10;85.20;;;;;;5091979;28;20029;-78
2022/10/26 01:49:14;;;;;;;9.18;4.38;;;13.20;85.30;;;;;;5074104;28;20048;-78
2022/10/26 01:51:42;;;;;;;8.68;4.30;;;13.20;85.30;;;;;;5091574;28;20067;-78
2022/10/26 01:54:08;;;;;;;7.85;4.22;;;13.20;85.30;;;;;;5092206;28;20192;-78
2022/10/26 01:56:38;;;;;;;7.38;4.03;;;13.20;85.30;;;;;;5091695;28;20056;-78
2022/10/26 01:59:29;;;;;;;7.43;4.53;;;13.20;85.30;;;;;;5092357;28;20024;-78
2022/10/26 02:02:25;;;;;;;7.50;3.72;;;13.20;85.10;;;;;;5092539;28;20028;-78
2022/10/26 02:05:09;;;;;;;7.90;3.88;;;13.30;85.10;;;;;;5092649;28;20020;-78
2022/10/26 02:08:09;;;;;;;7.50;4.13;;;13.20;85.00;;;;;;5092182;28;20036;-78
2022/10/26 02:10:57;;;;;;;7.25;3.90;;;13.20;85.00;;;;;;5074165;28;20031;-78
2022/10/26 02:13:50;;;;;;;8.68;4.18;;;13.20;85.30;;;;;;5073944;28;20103;-78
2022/10/26 02:16:20;;;;;;;;;;;13.10;85.20;;;;;;5091590;28;20099;-77
2022/10/26 02:19:23;;;;;;;7.78;3.85;;;13.10;85.50;;;;;;5090882;28;20028;-77
2022/10/26 02:21:52;;;;;;;;;;;13.00;85.80;;;;;;5061406;28;20140;-77
2022/10/26 02:24:18;;;;;;;8.98;3.72;;;13.00;85.90;;;;;;5092586;28;19932;-78
2022/10/26 02:26:47;;;;;;;6.55;3.47;;;12.90;86.20;;;;;;5092003;28;20017;-77
2022/10/26 02:29:17;;;;;;;7.07;4.00;;;13.00;86.40;;;;;;5090841;28;20042;-78
2022/10/26 02:31:45;;;;;;;8.10;4.18;;;13.00;86.30;;;;;;5091801;28;20025;-78
2022/10/26 02:34:14;;;;;;;7.45;3.65;;;13.00;86.40;;;;;;5090544;28;20025;-78
2022/10/26 02:36:43;;;;;;;8.05;4.25;;;13.00;86.40;;;;;;5091530;28;20016;-78
2022/10/26 02:39:10;;;;;;;6.22;4.07;;;13.10;86.50;;;;;;5091618;28;20028;-78
2022/10/26 02:41:37;;;;;;;9.05;3.95;;;13.00;86.50;;;;;;5091564;28;20020;-78
2022/10/26 02:44:25;;;;;;;10.35;4.05;;;13.10;86.50;;;;;;5092456;28;20092;-78
2022/10/26 02:46:52;;;;;;;8.48;3.72;;;13.10;86.50;;;;;;5091612;28;20029;-77
2022/10/26 02:49:18;;;;;;;7.57;3.88;;;13.00;86.50;;;;;;5090714;28;20029;-78
2022/10/26 02:52:02;;;;;;;8.25;4.10;;;13.00;86.50;;;;;;5073171;28;20032;-78
2022/10/26 02:54:40;;;;;;;9.60;3.97;;;13.10;86.60;;;;;;5091091;28;20028;-78
2022/10/26 02:57:12;;;;;;;9.82;4.07;;;13.10;86.50;;;;;;5073417;28;20396;-78
2022/10/26 02:59:41;;;;;;;7.28;3.70;;;13.10;86.40;;;;;;5092087;28;20033;-78
2022/10/26 03:02:07;;;;;;;11.60;4.22;;;13.10;86.40;;;;;;5091838;28;20021;-78
2022/10/26 03:04:34;;;;;;;9.88;4.10;;;13.10;87.20;;;;;;5091720;28;20033;-78
2022/10/26 03:07:00;;;;;;;8.75;4.22;;;13.10;86.40;;;;;;5056321;28;20028;-78
2022/10/26 03:09:26;;;;;;;9.48;3.70;;;13.10;86.40;;;;;;5091477;28;20027;-78
2022/10/26 03:11:52;;;;;;;6.03;3.95;;;13.20;86.40;;;;;;5090641;28;20039;-77
2022/10/26 03:14:17;;;;;;;10.95;3.85;;;13.20;86.30;;;;;;5091281;28;20028;-77
2022/10/26 03:16:43;;;;;;;7.25;3.85;;;13.20;86.30;;;;;;5091103;28;20047;-78
2022/10/26 03:19:09;;;;;;;8.23;4.28;;;13.20;86.40;;;;;;5091562;28;20062;-77
2022/10/26 03:21:34;;;;;;;12.43;4.20;;;13.20;86.40;;;;;;5091652;28;20084;-77
2022/10/26 03:24:00;;;;;;;9.65;4.40;;;13.20;86.30;;;;;;5073622;28;20032;-77
2022/10/26 03:26:25;;;;;;;8.50;3.63;;;13.20;86.30;;;;;;5091077;28;20035;-77
2022/10/26 03:28:51;;;;;;;8.63;4.10;;;13.20;86.30;;;;;;5090628;28;20032;-78
2022/10/26 03:31:17;;;;;;;8.15;4.30;;;13.20;86.30;;;;;;5094566;28;20044;-77
2022/10/26 03:33:42;;;;;;;6.07;3.95;;;13.20;86.20;;;;;;5094992;28;20131;-77
2022/10/26 03:36:08;;;;;;;10.27;4.20;;;13.20;86.20;;;;;;5077615;28;20032;-78
2022/10/26 03:38:34;;;;;;;7.72;3.90;;;13.30;86.20;;;;;;5095143;28;20025;-78
2022/10/26 03:40:59;;;;;;;10.38;4.25;;;13.30;86.20;;;;;;5077313;28;20025;-78
2022/10/26 03:43:27;;;;;;;9.25;4.55;;;13.30;86.10;;;;;;5077657;28;20486;-78
2022/10/26 03:45:53;;;;;;;6.68;3.90;;;13.30;86.10;;;;;;5077030;28;20040;-78
2022/10/26 03:48:18;;;;;;;8.27;4.50;;;13.30;86.10;;;;;;5093979;28;20036;-78
2022/10/26 03:50:45;;;;;;;8.95;3.78;;;13.20;86.00;;;;;;5076560;28;20028;-77
2022/10/26 03:53:10;;;;;;;7.00;4.03;;;13.20;86.10;;;;;;5093508;28;20109;-78
2022/10/26 03:55:36;;;;;;;8.90;4.25;;;13.20;86.10;;;;;;5094390;28;20052;-77
2022/10/26 03:58:02;;;;;;;11.02;4.22;;;13.30;86.20;;;;;;5094317;28;20092;-77
2022/10/26 04:00:27;;;;;;;9.40;4.32;;;13.30;86.20;;;;;;5076938;28;20036;-78
2022/10/26 04:02:58;;;;;;;8.98;4.00;;;13.30;86.20;;;;;;5095199;28;20025;-77
2022/10/26 04:05:25;;;;;;;7.55;4.22;;;13.30;86.30;;;;;;5076324;28;20047;-78
2022/10/26 04:08:04;;;;;;;7.25;4.35;;;13.30;87.30;;;;;;5075455;28;20096;-78
2022/10/26 04:10:30;;;;;;;6.45;3.83;;;13.30;86.40;;;;;;5076117;28;20042;-78
2022/10/26 04:12:57;;;;;;;7.93;3.90;;;13.30;86.50;;;;;;5092779;28;20021;-77
2022/10/26 04:15:23;;;;;;;7.20;4.00;;;13.30;86.60;;;;;;5094287;28;20048;-77
2022/10/26 04:17:59;;;;;;;11.50;3.95;;;13.20;86.60;;;;;;5094240;28;20029;-77
2022/10/26 04:20:26;;;;;;;6.80;3.92;;;13.30;86.80;;;;;;5094395;28;20525;-77
2022/10/26 04:23:03;;;;;;;8.40;3.97;;;13.30;87.60;;;;;;5094572;28;20088;-78
2022/10/26 04:25:31;;;;;;;6.18;3.75;;;13.30;86.80;;;;;;5093978;28;20020;-78
2022/10/26 04:27:56;;;;;;;8.07;3.70;;;13.30;86.80;;;;;;5093137;28;20017;-78
2022/10/26 04:30:22;;;;;;;8.02;3.88;;;13.30;86.80;;;;;;5093554;28;20032;-78
2022/10/26 04:32:48;;;;;;;6.22;3.45;;;13.30;86.70;;;;;;5075825;28;20027;-77
2022/10/26 04:35:14;;;;;;;7.40;3.63;;;13.30;86.60;;;;;;5093898;28;20032;-78
2022/10/26 04:37:39;;;;;;;6.72;3.70;;;13.30;86.60;;;;;;5093964;28;20024;-77
2022/10/26 04:40:05;;;;;;;6.78;3.60;;;13.30;86.50;;;;;;5093966;28;20086;-78
2022/10/26 04:42:38;;;;;;;6.10;3.53;;;13.30;86.50;;;;;;5093676;28;20029;-77
2022/10/26 04:45:04;;;;;;;7.78;3.47;;;13.40;86.50;;;;;;5060221;28;20052;-78
2022/10/26 04:47:30;;;;;;;5.75;3.33;;;13.40;86.50;;;;;;5075275;28;20032;-77
2022/10/26 04:49:55;;;;;;;7.65;3.80;;;13.30;86.50;;;;;;5093383;28;20059;-77
2022/10/26 04:52:21;;;;;;;6.72;3.53;;;13.40;86.70;;;;;;5092998;28;20088;-77
2022/10/26 04:54:46;;;;;;;7.43;3.60;;;13.40;86.70;;;;;;5093387;28;20051;-78
2022/10/26 04:57:12;;;;;;;6.07;3.15;;;13.40;86.70;;;;;;5093560;28;20037;-78
2022/10/26 04:59:38;;;;;;;7.45;3.60;;;13.40;86.80;;;;;;5075589;28;20032;-78
2022/10/26 05:02:03;;;;;;;6.50;3.45;;;13.40;86.80;;;;;;5094044;28;20037;-78
2022/10/26 05:04:29;;;;;;;6.32;3.70;;;13.40;86.70;;;;;;5093031;28;20040;-78
2022/10/26 05:06:54;;;;;;;8.00;3.80;;;13.40;86.80;;;;;;5092685;28;20024;-78
2022/10/26 05:09:20;;;;;;;7.88;3.67;;;13.40;86.70;;;;;;5074925;28;20028;-78
2022/10/26 05:11:45;;;;;;;6.35;3.40;;;13.40;86.70;;;;;;5092830;28;20020;-77
2022/10/26 05:14:12;;;;;;;8.48;3.72;;;13.40;86.90;;;;;;5092700;28;20503;-78
2022/10/26 05:16:37;;;;;;;5.13;3.33;;;13.40;86.90;;;;;;5075567;28;20021;-78
2022/10/26 05:19:03;;;;;;;5.10;3.20;;;13.30;87.00;;;;;;5093056;28;20090;-77
2022/10/26 05:21:29;;;;;;;5.82;3.40;;;13.40;87.20;;;;;;5093902;28;20025;-78
2022/10/26 05:23:55;;;;;;;6.07;3.25;;;13.40;87.20;;;;;;5092799;28;20459;-78
2022/10/26 05:26:21;;;;;;;9.20;3.70;;;13.40;87.20;;;;;;5092648;28;20115;-79
2022/10/26 05:28:47;;;;;;;7.03;3.53;;;13.40;87.20;;;;;;5092737;28;20024;-79
2022/10/26 05:31:13;;;;;;;6.63;3.30;;;13.40;87.20;;;;;;5058729;28;20035;-79
2022/10/26 05:33:39;;;;;;;7.32;3.58;;;13.40;87.10;;;;;;5092764;28;20032;-79
2022/10/26 05:36:05;;;;;;;6.75;3.28;;;13.50;87.10;;;;;;5093178;28;20024;-79
2022/10/26 05:38:31;;;;;;;7.38;3.30;;;13.40;87.20;;;;;;5092897;28;20020;-78
2022/10/26 05:40:58;;;;;;;5.53;2.90;;;13.50;87.20;;;;;;5093875;28;20033;-79
2022/10/26 05:43:26;;;;;;;8.65;2.92;;;13.50;87.20;;;;;;5092444;28;20024;-79
2022/10/26 05:45:52;;;;;;;6.38;3.10;;;13.50;87.20;;;;;;5093050;28;20024;-80
2022/10/26 05:48:17;;;;;;;7.93;3.08;;;13.50;87.10;;;;;;5074886;28;20111;-81
2022/10/26 05:50:43;;;;;;;4.93;2.83;;;13.60;87.10;;;;;;5092478;28;20028;-78
2022/10/26 05:53:09;;;;;;;7.30;3.13;;;13.60;87.10;;;;;;5075032;28;20025;-78
2022/10/26 05:55:35;;;;;;;5.47;2.85;;;13.60;87.10;;;;;;5074734;28;20064;-80
2022/10/26 05:58:01;;;;;;;7.30;3.17;;;13.60;87.10;;;;;;5092618;28;20032;-81
2022/10/26 06:00:28;;;;;;;5.18;2.90;;;13.60;87.00;;;;;;5093206;28;20048;-80
2022/10/26 06:03:03;;;;;;;4.30;2.58;;;13.60;87.00;;;;;;5074341;28;20020;-80
2022/10/26 06:05:34;;;;;;;5.22;3.00;;;13.70;87.00;;;;;;5074094;28;20138;-81
2022/10/26 06:08:00;;;;;;;5.13;2.92;;;13.70;87.00;;;;;;5091803;28;20071;-80
2022/10/26 06:10:26;;;;;;;7.15;3.22;;;13.70;87.00;;;;;;5074279;28;20040;-79
2022/10/26 06:12:52;;;;;;;5.68;2.60;;;13.70;87.00;;;;;;5057560;28;20024;-80
2022/10/26 06:15:20;;;;;;;4.32;2.85;;;13.70;87.00;;;;;;5074535;28;20028;-79
2022/10/26 06:17:52;;;;;;;10.57;2.75;;;13.70;87.00;;;;;;5074847;28;20056;-79
2022/10/26 06:21:04;;;;;;;6.25;2.80;;;13.70;87.00;;;;;;5093110;28;20032;-79
2022/10/26 06:23:56;;;;;;;7.40;3.00;;;13.70;86.90;;;;;;5037668;28;20034;-79
2022/10/26 06:26:45;;;;;;;9.07;3.08;;;13.70;86.90;;;;;;5091792;28;20080;-79
2022/10/26 06:29:19;;;;;;;6.30;2.80;;;13.70;86.90;;;;;;5091581;28;20029;-79
2022/10/26 06:31:46;;;;;;;6.35;2.83;;;13.70;87.00;;;;;;5073958;28;20033;-80
2022/10/26 06:34:17;;;;;;;6.60;2.95;;;13.70;87.90;;;;;;5073939;28;20024;-80
2022/10/26 06:36:45;;;;;;;3.97;2.50;;;13.70;87.20;;;;;;5074769;28;20551;-79
2022/10/26 06:39:12;;;;;;;5.88;2.55;;;13.70;87.10;;;;;;5074157;28;20024;-79
2022/10/26 06:41:38;;;;;;;4.78;2.70;;;13.70;87.10;;;;;;5092123;28;20031;-80
2022/10/26 06:44:05;;;;;;;5.50;2.88;;;13.70;87.10;;;;;;5091407;28;20056;-80
2022/10/26 06:46:38;;;;;;;7.50;3.22;;;13.80;87.20;;;;;;5091741;28;20025;-80
2022/10/26 06:49:41;;;;;;;7.80;2.97;;;13.80;87.20;;;;;;5091465;28;20073;-79
2022/10/26 06:52:25;;;;;;;;;;;13.80;87.10;;;;;;5059516;28;20052;-75
2022/10/26 06:54:53;;;;;;;5.82;2.58;;;13.80;87.10;;;;;;5090193;28;19919;-75
2022/10/26 06:57:23;;;;;;;8.88;3.20;;;13.70;87.30;;;;;;5089591;28;20029;-76
2022/10/26 06:59:51;;;;;;;6.30;2.60;;;13.70;87.30;;;;;;5090528;28;20029;-75
2022/10/26 07:02:17;;;;;;;8.05;2.92;;;13.70;87.30;;;;;;5072286;28;20052;-73
2022/10/26 07:04:43;;;;;;;6.07;3.55;;;13.70;87.30;;;;;;5091301;28;20035;-74
2022/10/26 07:07:18;;;;;;;4.90;3.00;;;13.70;87.20;;;;;;5075477;28;20033;-73
2022/10/26 07:09:44;;;;;;;5.43;3.00;;;13.70;87.20;;;;;;5094501;28;20024;-74
2022/10/26 07:12:10;;;;;;;8.48;3.25;;;13.70;87.20;;;;;;5093604;28;20050;-74
2022/10/26 07:14:36;;;;;;;8.05;2.75;;;13.70;87.20;;;;;;5094211;28;20029;-74
2022/10/26 07:17:02;;;;;;;4.47;2.72;;;13.70;87.30;;;;;;5094954;28;20175;-74
2022/10/26 07:19:27;;;;;;;6.05;3.17;;;13.70;87.30;;;;;;5096286;28;20025;-74
2022/10/26 07:22:00;;;;;;;6.32;2.80;;;13.70;87.30;;;;;;5094009;28;20032;-73
2022/10/26 07:24:29;;;;;;;6.72;3.40;;;13.70;87.60;;;;;;5076870;28;20028;-74
2022/10/26 07:26:56;;;;;;;6.60;3.40;;;13.80;87.60;;;;;;5092710;28;20024;-74
2022/10/26 07:29:23;;;;;;;8.20;3.38;;;13.80;87.50;;;;;;5094067;28;20371;-74
2022/10/26 07:31:49;;;;;;;4.63;3.20;;;13.80;87.50;;;;;;5075342;28;20019;-75
2022/10/26 07:34:14;;;;;;;6.40;3.05;;;13.90;87.50;;;;;;5093805;28;20025;-74
2022/10/26 07:36:40;;;;;;;5.78;3.42;;;13.90;87.40;;;;;;5094711;28;20032;-74
2022/10/26 07:39:06;;;;;;;5.82;3.03;;;14.00;87.30;;;;;;5061285;28;20032;-74
2022/10/26 07:41:32;;;;;;;6.95;2.88;;;14.00;87.40;;;;;;5093795;28;20084;-74
2022/10/26 07:43:58;;;;;;;6.15;3.40;;;14.00;87.30;;;;;;5093136;28;20024;-74
2022/10/26 07:46:24;;;;;;;8.40;3.45;;;14.10;87.50;;;;;;5092680;28;20021;-73
2022/10/26 07:48:50;;;;;;;7.03;3.63;;;14.10;87.40;;;;;;5075791;28;20076;-74
2022/10/26 07:51:15;;;;;;;9.05;3.60;;;14.20;87.40;;;;;;5075329;28;20028;-74
2022/10/26 07:53:41;;;;;;;10.40;4.43;;;14.20;87.20;;;;;;5093407;28;20051;-74
2022/10/26 07:56:08;;;;;;;8.15;3.65;;;14.30;87.20;;;;;;5094417;28;20048;-74
2022/10/26 07:58:35;;;;;;;6.60;3.67;;;14.30;87.30;;;;;;5060816;28;20028;-74
2022/10/26 08:01:10;;;;;;;7.50;3.97;;;14.40;87.30;;;;;;5093798;28;20035;-74
2022/10/26 08:03:35;;;;;;;7.03;3.60;;;14.50;87.50;;;;;;5092649;28;20040;-74
2022/10/26 08:06:03;;;;;;;5.50;3.42;;;14.50;87.50;;;;;;5092516;28;20080;-74
2022/10/26 08:08:28;;;;;;;8.00;3.72;;;14.50;87.30;;;;;;5075506;28;20021;-74
2022/10/26 08:10:55;;;;;;;9.25;3.65;;;14.60;87.10;;;;;;5075106;28;20087;-74
2022/10/26 08:13:21;;;;;;;8.50;3.60;;;14.80;87.00;;;;;;5075036;28;20031;-74
2022/10/26 08:15:46;;;;;;;7.45;3.40;;;15.00;86.90;;;;;;5075399;28;20057;-75
2022/10/26 08:18:12;;;;;;;6.75;3.83;;;15.10;87.30;;;;;;5094211;28;20037;-74
2022/10/26 08:20:38;;;;;;;7.28;3.58;;;15.20;86.30;;;;;;5093394;28;20025;-74
2022/10/26 08:23:05;;;;;;;5.80;3.63;;;15.30;85.80;;;;;;5092060;28;20028;-74
2022/10/26 08:25:31;;;;;;;10.43;3.80;;;15.40;85.50;;;;;;5074678;28;20051;-74
2022/10/26 08:28:02;;;;;;;6.32;3.38;;;15.40;85.00;;;;;;5092189;28;20044;-74
2022/10/26 08:30:31;;;;;;;8.95;3.33;;;15.50;84.50;;;;;;5092782;28;20025;-74
2022/10/26 08:32:58;;;;;;;5.75;3.10;;;15.50;84.50;;;;;;5058198;28;20043;-74
2022/10/26 08:35:24;;;;;;;6.40;2.55;;;15.60;85.00;;;;;;5076127;28;20024;-74
2022/10/26 08:37:51;;;;;;;6.95;3.10;;;15.70;85.40;;;;;;5093939;28;20028;-74
2022/10/26 08:40:21;;;;;;;6.45;2.90;;;15.80;84.80;;;;;;5075417;28;20028;-74
2022/10/26 08:42:51;;;;;;;7.97;3.33;;;15.90;83.90;;;;;;5073885;28;20020;-74
2022/10/26 08:45:37;;;;;;;4.80;2.88;;;15.90;84.30;;;;;;5092166;28;20115;-74
2022/10/26 08:48:17;;;;;;;6.28;2.92;;;16.00;83.70;;;;;;5092813;28;20100;-75
2022/10/26 08:50:55;;;;;;;4.68;2.92;;;16.10;84.30;;;;;;5073969;28;20121;-75
2022/10/26 08:53:36;;;;;;;7.13;2.80;;;16.10;83.40;;;;;;5092897;28;20028;-75
2022/10/26 08:56:23;;;;;;;5.22;2.83;;;16.20;84.10;;;;;;5092641;28;20127;-75
2022/10/26 08:59:04;;;;;;;5.55;2.83;;;16.50;84.10;;;;;;5093776;28;20495;-75
2022/10/26 09:01:30;;;;;;;6.10;2.90;;;16.50;83.60;;;;;;5092564;28;20040;-75
2022/10/26 09:03:57;;;;;;;5.60;3.10;;;16.60;83.40;;;;;;5073406;28;20032;-75
2022/10/26 09:06:58;;;;;;;5.68;3.25;;;16.70;82.50;;;;;;5074138;28;20024;-75
2022/10/26 09:09:43;;;;;;;5.70;3.13;;;16.80;82.20;;;;;;5089502;28;20037;-75
2022/10/26 09:12:08;;;;;;;7.60;3.13;;;16.90;82.30;;;;;;5091852;28;20114;-76
2022/10/26 09:14:57;;;;;;;6.35;3.35;;;17.00;82.80;;;;;;5075205;28;20054;-75
2022/10/26 09:17:39;;;;;;;6.18;3.45;;;17.00;81.20;;;;;;5093526;28;20063;-75
2022/10/26 09:20:34;;;;;;;8.05;3.50;;;17.10;82.10;;;;;;5091723;28;20040;-75
2022/10/26 09:23:27;;;;;;;9.23;3.13;;;17.20;82.00;;;;;;5091320;28;20076;-76
2022/10/26 09:25:59;;;;;;;5.55;3.08;;;17.30;81.90;;;;;;5092022;28;20503;-75
2022/10/26 09:28:28;;;;;;;8.57;3.00;;;17.40;81.20;;;;;;5090348;28;20036;-75
2022/10/26 09:30:58;;;;;;;6.28;3.30;;;17.40;81.30;;;;;;5091949;28;20047;-76
2022/10/26 09:33:25;;;;;;;6.15;3.75;;;17.50;81.20;;;;;;5074183;28;20044;-76
2022/10/26 09:35:57;;;;;;;7.13;3.22;;;17.50;80.70;;;;;;5091991;28;20020;-76
2022/10/26 09:38:40;;;;;;;8.45;3.10;;;17.60;80.90;;;;;;5092571;28;20031;-76
2022/10/26 09:41:30;;;;;;;6.32;3.20;;;17.70;82.00;;;;;;5073638;28;20084;-75
2022/10/26 09:44:18;;;;;;;5.78;3.50;;;17.90;82.00;;;;;;5091216;28;20471;-76
2022/10/26 09:46:54;;;;;;;5.60;3.25;;;18.00;79.90;;;;;;5091268;28;20028;-75
2022/10/26 09:49:29;;;;;;;7.25;2.80;;;18.10;80.00;;;;;;5090748;28;20017;-76
2022/10/26 09:51:55;;;;;;;5.45;2.78;;;18.10;80.00;;;;;;5091079;28;20051;-76
2022/10/26 09:54:21;;;;;;;5.22;2.90;;;18.10;79.30;;;;;;5092035;28;20088;-76
2022/10/26 09:56:52;;;;;;;6.10;3.20;;;18.10;80.30;;;;;;5075398;28;20048;-76
2022/10/26 09:59:21;;;;;;;7.30;2.72;;;18.30;80.20;;;;;;5072934;28;20020;-76
2022/10/26 10:01:47;;;;;;;5.72;2.42;;;18.40;79.70;;;;;;5090812;28;20062;-75
2022/10/26 10:04:15;;;;;;;7.25;2.65;;;18.40;79.30;;;;;;5089794;28;20112;-76
2022/10/26 10:06:43;;;;;;;4.63;2.90;;;18.40;78.40;;;;;;5090984;28;20041;-76
2022/10/26 10:09:15;;;;;;;5.05;2.17;;;18.40;79.40;;;;;;5090320;28;20084;-76
2022/10/26 10:11:53;;;;;;;6.43;2.67;;;18.40;79.20;;;;;;5075249;28;20044;-75
2022/10/26 10:14:26;;;;;;;4.93;2.10;;;18.60;78.90;;;;;;5075601;28;20357;-75
2022/10/26 10:17:03;;;;;;;6.38;2.88;;;18.60;79.10;;;;;;5093445;28;20092;-76
2022/10/26 10:19:30;;;;;;;4.07;2.00;;;18.60;78.30;;;;;;5093291;28;20038;-76
2022/10/26 10:21:59;;;;;;;6.53;2.13;;;18.60;78.90;;;;;;5093204;28;20032;-76
2022/10/26 10:24:32;;;;;;;4.75;2.40;;;18.70;77.40;;;;;;5075426;28;20025;-76
2022/10/26 10:27:12;;;;;;;4.13;1.95;;;18.70;77.80;;;;;;5075405;28;20035;-76
2022/10/26 10:29:52;;;;;;;5.60;2.20;;;18.80;78.20;;;;;;5072799;28;20059;-75
2022/10/26 10:41:15;;;;;;;4.10;2.30;;;19.00;78.30;;;;;;5057859;28;20051;-76
2022/10/26 10:43:50;;;;;;;4.25;2.42;;;19.10;77.10;;;;;;5071146;28;20037;-76
2022/10/26 10:46:23;;;;;;;10.02;2.60;;;19.20;76.70;;;;;;5071094;28;20074;-76
2022/10/26 10:49:01;;;;;;;7.93;2.00;;;19.20;75.60;;;;;;5071198;28;20041;-75
2022/10/26 10:51:29;;;;;;;5.38;1.92;;;19.20;76.80;;;;;;5070994;28;20021;-76
2022/10/26 10:53:55;;;;;;;4.32;2.10;;;19.20;76.80;;;;;;5070955;28;20044;-76
2022/10/26 10:56:42;;;;;;;5.22;2.20;;;19.20;76.40;;;;;;5070836;28;20111;-76
2022/10/26 10:59:20;;;;;;;5.60;1.98;;;19.30;76.30;;;;;;5071175;28;20040;-76
2022/10/26 11:02:24;;;;;;;5.07;2.13;;;19.30;76.70;;;;;;5071012;28;20057;-76
2022/10/26 11:05:30;;;;;;;5.63;2.35;;;19.40;76.90;;;;;;5071040;28;20549;-76
2022/10/26 11:08:14;;;;;;;5.35;2.10;;;19.40;77.50;;;;;;5055515;28;20040;-75
2022/10/26 11:10:50;;;;;;;3.83;2.00;;;19.50;76.50;;;;;;5070982;28;20021;-76
2022/10/26 11:13:28;;;;;;;4.10;2.05;;;19.60;76.30;;;;;;5071031;28;20026;-76
2022/10/26 11:16:02;;;;;;;5.25;1.90;;;19.80;76.10;;;;;;5070829;28;20231;-76
2022/10/26 11:18:54;;;;;;;7.00;2.40;;;19.80;75.70;;;;;;5054132;28;20025;-76
2022/10/26 11:21:32;;;;;;;4.57;2.47;;;19.90;74.90;;;;;;5073565;28;20052;-76
2022/10/26 11:24:00;;;;;;;6.20;2.20;;;20.00;74.90;;;;;;5091318;28;20077;-76
2022/10/26 11:26:30;;;;;;;9.10;1.90;;;20.00;75.50;;;;;;5092629;28;20021;-75
2022/10/26 11:29:19;;;;;;;4.60;1.90;;;19.90;75.00;;;;;;5092632;28;20051;-75
2022/10/26 11:31:50;;;;;;;5.32;2.33;;;19.90;74.90;;;;;;5061377;28;20036;-76
2022/10/26 11:34:19;;;;;;;4.43;1.97;;;20.00;75.60;;;;;;5074836;28;20112;-76
2022/10/26 11:36:50;;;;;;;3.88;1.90;;;20.00;75.40;;;;;;5074918;28;20052;-76
2022/10/26 11:39:44;;;;;;;4.80;2.03;;;20.00;75.70;;;;;;5074882;28;20050;-75
2022/10/26 11:42:41;;;;;;;3.70;2.20;;;19.90;74.40;;;;;;5074811;28;20024;-75
2022/10/26 11:45:25;;;;;;;5.65;2.00;;;20.00;75.50;;;;;;5070902;28;20040;-75
2022/10/26 11:48:00;;;;;;;5.45;2.17;;;20.00;75.80;;;;;;5092505;28;20028;-76
2022/10/26 11:50:33;;;;;;;4.18;2.10;;;20.00;75.60;;;;;;5093100;28;20047;-76
2022/10/26 11:53:11;;;;;;;4.50;2.00;;;19.90;75.00;;;;;;5096073;28;20084;-74
2022/10/26 11:55:38;;;;;;;3.45;2.10;;;19.80;75.60;;;;;;5078094;28;20392;-76
2022/10/26 11:58:04;;;;;;;5.85;2.28;;;19.70;75.30;;;;;;5095912;28;20062;-76
2022/10/26 12:00:31;;;;;;;5.00;1.92;;;19.70;75.60;;;;;;5095897;28;20028;-76
2022/10/26 12:03:10;;;;;;;3.25;1.90;;;19.70;75.60;;;;;;5078045;28;20031;-76
2022/10/26 12:05:39;;;;;;;4.65;2.03;;;19.90;75.60;;;;;;5095750;28;20086;-76
2022/10/26 12:08:14;;;;;;;6.22;2.47;;;20.00;76.00;;;;;;5095721;28;20477;-76
2022/10/26 12:10:47;;;;;;;4.07;2.20;;;20.10;75.20;;;;;;5095796;28;20021;-76
2022/10/26 12:13:37;;;;;;;5.50;2.55;;;20.20;75.30;;;;;;5095748;28;20027;-76
2022/10/26 12:16:16;;;;;;;5.88;2.90;;;20.30;74.60;;;;;;5095605;28;20025;-76
2022/10/26 12:19:01;;;;;;;3.22;2.30;;;20.30;75.20;;;;;;5095814;28;20085;-76
2022/10/26 12:21:29;;;;;;;4.85;2.53;;;20.30;74.60;;;;;;5077881;28;20046;-76
2022/10/26 12:24:00;;;;;;;3.85;2.28;;;20.20;74.10;;;;;;5095404;28;20028;-76
2022/10/26 12:26:26;;;;;;;4.28;2.20;;;20.10;73.40;;;;;;5095372;28;20042;-74
2022/10/26 12:29:01;;;;;;;4.40;2.83;;;20.10;74.30;;;;;;5095239;28;20028;-75
2022/10/26 12:31:35;;;;;;;6.50;2.42;;;20.00;73.50;;;;;;5095298;28;20494;-76
2022/10/26 12:34:03;;;;;;;7.30;2.50;;;20.10;74.40;;;;;;5095262;28;20021;-74
2022/10/26 12:36:54;;;;;;;5.32;2.33;;;20.10;73.90;;;;;;5095249;28;20107;-74
2022/10/26 12:39:27;;;;;;;3.20;2.10;;;20.20;74.20;;;;;;5077229;28;20081;-74
2022/10/26 12:42:05;;;;;;;4.60;2.17;;;20.30;74.40;;;;;;5094921;28;20030;-74
2022/10/26 12:45:06;;;;;;;3.22;2.05;;;20.30;73.50;;;;;;5094971;28;20071;-75
2022/10/26 12:47:31;;;;;;;5.65;2.00;;;20.30;74.10;;;;;;5084404;28;20033;-75
2022/10/26 12:50:17;;;;;;;4.43;2.13;;;20.30;75.00;;;;;;5094921;28;20028;-74
2022/10/26 12:52:52;;;;;;;5.38;2.08;;;20.40;73.90;;;;;;5077071;28;20025;-75
2022/10/26 12:55:37;;;;;;;4.10;1.67;;;20.40;73.30;;;;;;5094545;28;20040;-75
2022/10/26 12:58:50;;;;;;;2.92;1.67;;;20.40;72.60;;;;;;5094976;28;20029;-75
2022/10/26 13:01:33;;;;;;;6.00;1.92;;;20.30;73.60;;;;;;5071832;28;20037;-75
2022/10/26 13:04:34;;;;;;;2.88;1.90;;;20.40;72.70;;;;;;5094196;28;20028;-75
2022/10/26 13:07:19;;;;;;;4.38;2.05;;;20.50;73.60;;;;;;5094788;28;20020;-76
2022/10/26 13:09:53;;;;;;;3.13;1.77;;;20.60;73.40;;;;;;5076947;28;20021;-75
2022/10/26 13:12:19;;;;;;;4.60;1.83;;;20.60;74.20;;;;;;5094535;28;20024;-75
2022/10/26 13:14:56;;;;;;;4.30;1.75;;;20.60;73.60;;;;;;5076800;28;20092;-75
2022/10/26 13:17:27;;;;;;;4.00;1.70;;;20.70;73.00;;;;;;5094421;28;20024;-76
2022/10/26 13:20:01;;;;;;;4.78;1.77;;;20.70;73.00;;;;;;5076658;28;20036;-76
2022/10/26 13:22:28;;;;;;;3.70;1.70;;;20.80;73.00;;;;;;5094170;28;20034;-75